Accueil
METAR-TAF:

METAR-TAF

Aéroports :

Aéroport international des îles Marshall

Majuro, Îles Marshall

latitude: 07-04N, longitude: 171-17E, altitude: 2 m

Observation

Le bulletin a été fait il y a 53 minutes, à 20:52 UTC
Vent 2 kt de direction variable
Température 29°C
Humidité 79%
Pression 1010 hPa
Visibilité: 24.1 km
Quelques nuages à une hauteur de 1500 ft
Nuages épars à une hauteur de 5000 ft
Ciel couvert à une hauteur de 30000 ft

METAR: PKMJ 212052Z VRB02KT 15SM FEW015 SCT050 OVC300 29/25 A2982

Heure: 09:45 (21:45 UTC)

Prévision

Le bulletin a été fait il y a 4 heures et 25 minutes, à 17:20 UTC
Prévision valable du 21 à 18 UTC au 22 à 18 UTC
Vent 7 kt de est
Visibilité: 10 km
Quelques nuages à une hauteur de 1500 ft
Nuages épars à une hauteur de 12000 ft
averses à proximité

TAF: PKMJ 211720Z 2118/2218 08007KT P6SM VCSH FEW015 SCT120

Observations et prévisions météorologiques de plus de 4000 aéroports (messages METAR et TAF).

Les stations disponibles sont représentées par des disques jaunes et rouges sur la carte.

Passer la souris dessus pour voir le nom de la station.

Cliquer dessus pour voir les observations et prévisions météorologiques.

Pour changer de carte: cliquez sur les boutons verts avec une croix noire pour zoomer, sur le bouton vert avec un tiret pour effectuer un zoom arrière, ou sur les flèches vertes pour les cartes adjacentes.


METAR-TAF: